createdAt,value
2018-11-14T00:00:03.906Z,102431.06
2018-11-14T00:02:32.174Z,102433.06
2018-11-14T00:05:00.453Z,102441.42
2018-11-14T00:07:28.714Z,102443.20
2018-11-14T00:09:57.045Z,102447.26
2018-11-14T00:12:25.274Z,102432.78
2018-11-14T00:14:53.561Z,102448.95
2018-11-14T00:17:21.842Z,102458.23
2018-11-14T00:19:50.386Z,102456.55
2018-11-14T00:22:18.663Z,102460.52
2018-11-14T00:24:47.000Z,102450.15
2018-11-14T00:27:15.238Z,102458.17
2018-11-14T00:29:43.728Z,102467.22
2018-11-14T00:32:12.042Z,102465.30
2018-11-14T00:34:40.383Z,102471.88
2018-11-14T00:37:08.642Z,102476.66
2018-11-14T00:39:36.961Z,102478.24
2018-11-14T00:42:05.362Z,102477.27
2018-11-14T00:44:33.641Z,102482.98
2018-11-14T00:47:02.064Z,102475.81
2018-11-14T00:49:30.342Z,102487.63
2018-11-14T00:51:58.610Z,102487.47
2018-11-14T00:54:26.906Z,102469.28
2018-11-14T00:56:55.166Z,102495.04
2018-11-14T00:59:23.442Z,102495.94
2018-11-14T01:01:51.754Z,102504.63
2018-11-14T01:04:20.882Z,102505.16
2018-11-14T01:06:49.155Z,102504.22
2018-11-14T01:09:17.778Z,102505.53
2018-11-14T01:11:46.002Z,102505.43
2018-11-14T01:14:14.366Z,102502.53
2018-11-14T01:16:42.874Z,102513.48
2018-11-14T01:19:11.233Z,102511.67
2018-11-14T01:21:39.734Z,102509.27
2018-11-14T01:24:08.634Z,102508.55
2018-11-14T01:26:37.014Z,102513.72
2018-11-14T01:29:05.471Z,102508.34
2018-11-14T01:31:33.794Z,102529.22
2018-11-14T01:34:02.069Z,102510.59
2018-11-14T01:36:30.339Z,102515.66
2018-11-14T01:38:58.602Z,102522.16
2018-11-14T01:41:26.886Z,102525.50
2018-11-14T01:43:55.166Z,102527.91
2018-11-14T01:46:23.451Z,102532.83
2018-11-14T01:48:51.731Z,102529.12
2018-11-14T01:51:19.993Z,102521.12
2018-11-14T01:53:48.287Z,102529.41
2018-11-14T01:56:16.653Z,102529.22
2018-11-14T01:58:44.929Z,102522.57
2018-11-14T02:01:13.198Z,102522.99
2018-11-14T02:03:41.466Z,102533.11
2018-11-14T02:06:09.744Z,102530.75
2018-11-14T02:08:38.054Z,102531.51
2018-11-14T02:11:06.356Z,102539.60
2018-11-14T02:13:34.616Z,102542.69
2018-11-14T02:16:03.022Z,102541.73
2018-11-14T02:18:31.302Z,102545.66
2018-11-14T02:20:59.566Z,102541.50
2018-11-14T02:23:27.886Z,102547.34
2018-11-14T02:25:56.174Z,102554.22
2018-11-14T02:28:24.457Z,102551.73
2018-11-14T02:30:52.775Z,102551.28
2018-11-14T02:33:21.039Z,102551.66
2018-11-14T02:35:49.303Z,102546.09
2018-11-14T02:38:17.714Z,102552.59
2018-11-14T02:40:45.986Z,102550.52
2018-11-14T02:43:14.345Z,102553.69
2018-11-14T02:45:42.842Z,102551.80
2018-11-14T02:48:11.110Z,102547.41
2018-11-14T02:50:39.372Z,102549.50
2018-11-14T02:53:07.882Z,102548.56
2018-11-14T02:55:36.154Z,102539.02
2018-11-14T02:58:04.433Z,102552.64
2018-11-14T03:00:32.810Z,102552.50
2018-11-14T03:03:01.086Z,102547.78
2018-11-14T03:05:29.354Z,102555.27
2018-11-14T03:07:57.645Z,102550.83
2018-11-14T03:10:25.914Z,102550.55
2018-11-14T03:12:54.186Z,102553.17
2018-11-14T03:15:23.594Z,102557.83
2018-11-14T03:17:52.004Z,102542.31
2018-11-14T03:20:21.295Z,102548.73
2018-11-14T03:22:49.753Z,102549.91
2018-11-14T03:25:18.426Z,102545.05
2018-11-14T03:27:46.749Z,102550.17
2018-11-14T03:30:18.215Z,102554.94
2018-11-14T03:32:46.569Z,102565.89
2018-11-14T03:35:15.369Z,102561.79
2018-11-14T03:37:43.822Z,102566.60
2018-11-14T03:40:13.692Z,102565.49
2018-11-14T03:42:41.994Z,102560.43
2018-11-14T03:45:11.634Z,102567.55
2018-11-14T03:47:40.209Z,102559.37
2018-11-14T03:50:09.233Z,102570.69
2018-11-14T03:52:37.683Z,102575.11
2018-11-14T03:55:06.278Z,102573.57
2018-11-14T03:57:34.610Z,102585.59
2018-11-14T04:00:02.922Z,102584.98
2018-11-14T04:02:31.194Z,102587.75
2018-11-14T04:04:59.497Z,102589.37
2018-11-14T04:07:27.822Z,102588.24
2018-11-14T04:09:56.086Z,102587.08
2018-11-14T04:12:24.403Z,102589.58
2018-11-14T04:14:52.661Z,102591.93
2018-11-14T04:17:20.926Z,102596.66
2018-11-14T04:19:49.214Z,102602.84
2018-11-14T04:22:17.478Z,102601.62
2018-11-14T04:24:45.837Z,102602.64
2018-11-14T04:27:14.142Z,102601.92
2018-11-14T04:29:42.619Z,102597.32
2018-11-14T04:32:10.884Z,102606.69
2018-11-14T04:34:39.147Z,102610.91
2018-11-14T04:37:07.411Z,102607.88
2018-11-14T04:39:35.732Z,102616.57
2018-11-14T04:42:04.487Z,102602.95
2018-11-14T04:44:32.745Z,102606.32
2018-11-14T04:47:01.078Z,102607.04
2018-11-14T04:49:29.334Z,102599.11
2018-11-14T04:51:57.593Z,102602.02
2018-11-14T04:54:25.908Z,102606.22
2018-11-14T04:56:54.126Z,102616.27
2018-11-14T04:59:22.502Z,102608.89
2018-11-14T05:01:50.951Z,102612.35
2018-11-14T05:04:19.206Z,102609.77
2018-11-14T05:06:47.793Z,102615.42
2018-11-14T05:09:16.062Z,102614.13
2018-11-14T05:11:44.330Z,102627.68
2018-11-14T05:14:12.626Z,102636.22
2018-11-14T05:16:40.894Z,102637.80
2018-11-14T05:19:09.172Z,102645.81
2018-11-14T05:21:37.466Z,102645.58
2018-11-14T05:24:05.758Z,102650.97
2018-11-14T05:26:34.031Z,102657.61
2018-11-14T05:29:02.322Z,102653.50
2018-11-14T05:31:30.650Z,102655.19
2018-11-14T05:33:58.914Z,102646.23
2018-11-14T05:36:27.403Z,102652.62
2018-11-14T05:38:55.658Z,102652.23
2018-11-14T05:41:23.929Z,102651.84
2018-11-14T05:43:52.224Z,102662.06
2018-11-14T05:46:20.491Z,102666.41
2018-11-14T05:48:48.750Z,102663.69
2018-11-14T05:51:17.046Z,102670.55
2018-11-14T05:53:45.306Z,102663.45
2018-11-14T05:56:13.581Z,102673.75
2018-11-14T05:58:41.945Z,102670.02
2018-11-14T06:01:10.214Z,102674.16
2018-11-14T06:03:38.473Z,102674.88
2018-11-14T06:06:06.806Z,102681.17
2018-11-14T06:08:35.065Z,102682.94
2018-11-14T06:11:03.337Z,102681.09
2018-11-14T06:13:31.670Z,102681.41
2018-11-14T06:15:59.975Z,102681.75
2018-11-14T06:18:28.218Z,102686.98
2018-11-14T06:20:56.683Z,102685.41
2018-11-14T06:23:24.961Z,102694.74
2018-11-14T06:25:53.210Z,102702.20
2018-11-14T06:28:21.523Z,102700.29
2018-11-14T06:30:49.790Z,102699.48
2018-11-14T06:33:18.061Z,102706.55
2018-11-14T06:35:46.442Z,102714.59
2018-11-14T06:38:14.699Z,102713.98
2018-11-14T06:40:43.938Z,102711.71
2018-11-14T06:43:12.250Z,102705.95
2018-11-14T06:45:40.521Z,102716.47
2018-11-14T06:48:08.800Z,102707.53
2018-11-14T06:50:37.174Z,102708.70
2018-11-14T06:53:06.672Z,102720.12
2018-11-14T06:55:34.940Z,102716.52
2018-11-14T06:58:03.362Z,102721.41
2018-11-14T07:00:33.563Z,102731.09
2018-11-14T07:03:02.947Z,102738.55
2018-11-14T07:05:31.450Z,102739.14
2018-11-14T07:07:59.665Z,102743.41
2018-11-14T07:10:30.526Z,102745.59
2018-11-14T07:13:05.534Z,102750.33
2018-11-14T07:15:34.653Z,102754.09
2018-11-14T07:18:03.002Z,102750.33
2018-11-14T07:20:33.577Z,102759.82
2018-11-14T07:23:01.846Z,102763.25
2018-11-14T07:25:30.150Z,102768.28
2018-11-14T07:27:58.514Z,102761.09
2018-11-14T07:30:27.993Z,102759.82
2018-11-14T07:32:57.473Z,102771.05
2018-11-14T07:35:25.953Z,102766.31
2018-11-14T07:39:01.541Z,102761.22
2018-11-14T07:41:35.190Z,102754.59
2018-11-14T07:44:03.514Z,102763.27
2018-11-14T07:46:32.666Z,102762.39
2018-11-14T07:49:01.092Z,102763.52
2018-11-14T07:51:29.577Z,102760.00
2018-11-14T07:53:58.198Z,102754.16
2018-11-14T07:56:26.642Z,102759.65
2018-11-14T07:58:54.934Z,102767.14
2018-11-14T08:01:23.286Z,102761.24
2018-11-14T08:03:51.662Z,102759.20
2018-11-14T08:06:20.057Z,102758.37
2018-11-14T08:08:48.525Z,102755.48
2018-11-14T08:11:16.863Z,102762.08
2018-11-14T08:13:46.410Z,102764.88
2018-11-14T08:16:14.894Z,102775.64
2018-11-14T08:18:43.261Z,102774.40
2018-11-14T08:21:11.625Z,102769.63
2018-11-14T08:23:39.902Z,102772.13
2018-11-14T08:26:08.195Z,102783.29
2018-11-14T08:28:36.481Z,102784.05
2018-11-14T08:31:04.774Z,102790.97
2018-11-14T08:33:33.058Z,102793.94
2018-11-14T08:36:01.349Z,102798.53
2018-11-14T08:38:29.641Z,102804.98
2018-11-14T08:40:57.923Z,102805.63
2018-11-14T08:43:26.182Z,102809.95
2018-11-14T08:45:54.589Z,102804.61
2018-11-14T08:48:22.889Z,102813.57
2018-11-14T08:50:51.157Z,102809.17
2018-11-14T08:53:19.454Z,102813.48
2018-11-14T08:55:47.734Z,102811.33
2018-11-14T08:58:15.998Z,102798.06
2018-11-14T09:00:44.446Z,102804.49
2018-11-14T09:03:13.771Z,102811.76
2018-11-14T09:05:42.049Z,102822.47
2018-11-14T09:08:10.350Z,102816.57
2018-11-14T09:10:38.657Z,102828.32
2018-11-14T09:13:12.015Z,102827.36
2018-11-14T09:15:40.532Z,102842.59
2018-11-14T09:18:08.956Z,102841.55
2018-11-14T09:20:37.230Z,102852.25
2018-11-14T09:23:06.211Z,102858.63
2018-11-14T09:25:34.568Z,102854.05
2018-11-14T09:28:03.319Z,102850.69
2018-11-14T09:30:31.739Z,102853.05
2018-11-14T09:33:00.054Z,102851.37
2018-11-14T09:35:28.946Z,102846.75
2018-11-14T09:37:58.541Z,102841.98
2018-11-14T09:40:27.917Z,102843.22
2018-11-14T09:42:56.194Z,102849.02
2018-11-14T09:45:25.829Z,102841.16
2018-11-14T09:47:54.141Z,102835.35
2018-11-14T09:50:23.702Z,102848.42
2018-11-14T09:52:53.358Z,102854.05
2018-11-14T09:55:21.689Z,102857.31
2018-11-14T09:57:50.049Z,102856.59
2018-11-14T10:00:20.194Z,102859.77
2018-11-14T10:02:50.093Z,102860.08
2018-11-14T10:05:19.573Z,102860.28
2018-11-14T10:07:47.935Z,102852.31
2018-11-14T10:10:17.425Z,102852.40
2018-11-14T10:12:45.734Z,102848.02
2018-11-14T10:15:18.157Z,102832.58
2018-11-14T10:17:46.933Z,102840.25
2018-11-14T10:20:17.466Z,102839.42
2018-11-14T10:22:46.070Z,102826.69
2018-11-14T10:25:15.138Z,102824.14
2018-11-14T10:27:44.026Z,102815.87
2018-11-14T10:30:15.786Z,102818.08
2018-11-14T10:32:44.778Z,102820.48
2018-11-14T10:35:13.174Z,102826.90
2018-11-14T10:37:41.947Z,102813.78
2018-11-14T10:40:13.634Z,102821.55
2018-11-14T10:42:42.758Z,102831.06
2018-11-14T10:45:12.430Z,102846.03
2018-11-14T10:47:41.114Z,102829.64
2018-11-14T10:50:12.730Z,102831.52
2018-11-14T10:52:41.001Z,102836.01
2018-11-14T10:55:10.633Z,102852.84
2018-11-14T10:57:39.213Z,102855.48
2018-11-14T11:00:21.048Z,102840.59
2018-11-14T11:02:54.534Z,102832.26
2018-11-14T11:05:28.229Z,102839.14
2018-11-14T11:08:01.865Z,102847.24
2018-11-14T11:10:35.262Z,102838.91
2018-11-14T11:13:09.241Z,102838.45
2018-11-14T11:15:42.932Z,102844.08
2018-11-14T11:18:14.717Z,102845.22
2018-11-14T11:20:43.164Z,102838.73
2018-11-14T11:23:11.639Z,102836.73
2018-11-14T11:25:40.217Z,102837.36
2018-11-14T11:28:08.506Z,102832.63
2018-11-14T11:30:37.026Z,102826.97
2018-11-14T11:33:06.785Z,102816.41
2018-11-14T11:35:35.105Z,102819.07
2018-11-14T11:38:03.711Z,102814.17
2018-11-14T11:40:32.200Z,102810.91
2018-11-14T11:43:00.743Z,102808.92
2018-11-14T11:45:29.823Z,102808.22
2018-11-14T11:47:58.105Z,102803.21
2018-11-14T11:50:26.554Z,102799.36
2018-11-14T11:52:55.048Z,102805.03
2018-11-14T11:55:23.321Z,102796.86
2018-11-14T11:57:51.639Z,102799.13
2018-11-14T12:00:20.079Z,102795.63
2018-11-14T12:02:48.214Z,102802.66
2018-11-14T12:05:16.487Z,102801.86
2018-11-14T12:07:44.942Z,102807.84
2018-11-14T12:10:14.237Z,102804.70
2018-11-14T12:12:43.446Z,102797.27
2018-11-14T12:15:12.806Z,102790.34
2018-11-14T12:17:41.841Z,102800.01
2018-11-14T12:20:11.613Z,102798.75
2018-11-14T12:22:40.526Z,102804.61
2018-11-14T12:25:10.726Z,102800.98
2018-11-14T12:27:39.098Z,102808.75
2018-11-14T12:30:10.162Z,102807.61
2018-11-14T12:32:38.548Z,102798.52
2018-11-14T12:35:08.123Z,102801.05
2018-11-14T12:37:36.402Z,102801.91
2018-11-14T12:40:06.791Z,102788.64
2018-11-14T12:42:35.734Z,102790.19
2018-11-14T12:45:06.053Z,102788.02
2018-11-14T12:47:34.725Z,102783.92
2018-11-14T12:50:05.066Z,102776.36
2018-11-14T12:52:34.028Z,102778.13
2018-11-14T12:55:04.458Z,102767.38
2018-11-14T12:57:35.354Z,102773.59
2018-11-14T13:00:06.636Z,102781.21
2018-11-14T13:02:35.766Z,102776.45
2018-11-14T13:05:06.318Z,102783.44
2018-11-14T13:07:37.197Z,102792.09
2018-11-14T13:10:07.334Z,102785.55
2018-11-14T13:12:36.282Z,102804.30
2018-11-14T13:15:06.846Z,102789.10
2018-11-14T13:17:36.634Z,102797.49
2018-11-14T13:20:07.910Z,102800.72
2018-11-14T13:22:36.649Z,102801.94
2018-11-14T13:25:07.650Z,102795.59
2018-11-14T13:27:36.407Z,102794.55
2018-11-14T13:30:07.662Z,102790.59
2018-11-14T13:32:36.629Z,102779.38
2018-11-14T13:35:07.761Z,102783.95
2018-11-14T13:37:37.008Z,102787.80
2018-11-14T13:40:07.178Z,102784.56
2018-11-14T13:42:36.831Z,102768.91
2018-11-14T13:45:07.369Z,102778.81
2018-11-14T13:47:36.670Z,102773.20
2018-11-14T13:50:06.074Z,102781.77
2018-11-14T13:52:34.426Z,102788.00
2018-11-14T13:55:02.703Z,102788.56
2018-11-14T13:57:31.065Z,102785.67
2018-11-14T13:59:59.354Z,102785.87
2018-11-14T14:02:27.630Z,102789.95
2018-11-14T14:04:55.897Z,102801.08
2018-11-14T14:07:24.226Z,102794.78
2018-11-14T14:09:52.515Z,102795.34
2018-11-14T14:12:20.780Z,102801.16
2018-11-14T14:14:49.091Z,102803.96
2018-11-14T14:17:17.369Z,102793.23
2018-11-14T14:19:45.681Z,102790.50
2018-11-14T14:22:14.431Z,102793.55
2018-11-14T14:24:42.626Z,102786.19
2018-11-14T14:27:10.891Z,102792.72
2018-11-14T14:29:39.178Z,102778.67
2018-11-14T14:32:07.462Z,102775.83
2018-11-14T14:34:35.838Z,102776.50
2018-11-14T14:37:04.154Z,102771.19
2018-11-14T14:39:32.422Z,102777.45
2018-11-14T14:42:00.710Z,102780.26
2018-11-14T14:44:29.150Z,102763.19
2018-11-14T14:46:57.410Z,102758.73
2018-11-14T14:49:25.701Z,102776.42
2018-11-14T14:51:53.966Z,102772.25
2018-11-14T14:54:22.246Z,102782.19
2018-11-14T14:56:50.538Z,102785.16
2018-11-14T14:59:18.818Z,102784.31
2018-11-14T15:01:47.098Z,102784.41
2018-11-14T15:04:15.419Z,102793.85
2018-11-14T15:06:44.767Z,102787.36
2018-11-14T15:09:13.053Z,102773.76
2018-11-14T15:11:42.506Z,102786.56
2018-11-14T15:14:10.782Z,102785.81
2018-11-14T15:16:39.074Z,102780.97
2018-11-14T15:19:07.598Z,102779.91
2018-11-14T15:21:35.897Z,102784.16
2018-11-14T15:24:04.191Z,102785.48
2018-11-14T15:26:32.463Z,102780.23
2018-11-14T15:29:00.888Z,102777.61
2018-11-14T15:31:29.035Z,102762.08
2018-11-14T15:33:57.402Z,102766.86
2018-11-14T15:36:25.702Z,102768.19
2018-11-14T15:38:53.985Z,102770.05
2018-11-14T15:41:22.243Z,102760.41
2018-11-14T15:43:50.526Z,102770.67
2018-11-14T15:46:18.827Z,102770.67
2018-11-14T15:48:47.169Z,102783.55
2018-11-14T15:51:15.430Z,102786.88
2018-11-14T15:56:47.045Z,102776.44
2018-11-14T15:59:15.366Z,102773.81
2018-11-14T16:01:43.700Z,102778.53
2018-11-14T16:04:12.358Z,102769.76
2018-11-14T16:06:40.667Z,102761.72
2018-11-14T16:09:11.313Z,102764.81
2018-11-14T16:11:39.787Z,102765.73
2018-11-14T16:17:10.909Z,102771.67
2018-11-14T16:19:39.374Z,102777.91
2018-11-14T16:22:07.685Z,102764.08
2018-11-14T16:24:36.086Z,102772.63
2018-11-14T16:27:05.272Z,102762.29
2018-11-14T16:29:34.710Z,102769.70
2018-11-14T16:32:04.405Z,102776.16
2018-11-14T16:34:34.230Z,102770.98
2018-11-14T16:37:04.137Z,102772.25
2018-11-14T16:39:44.888Z,102786.00
2018-11-14T16:42:25.005Z,102773.91
2018-11-14T16:45:05.814Z,102786.45
2018-11-14T16:47:34.078Z,102779.30
2018-11-14T16:50:02.348Z,102783.23
2018-11-14T16:52:30.838Z,102779.52
2018-11-14T16:54:59.106Z,102786.81
2018-11-14T16:57:27.718Z,102781.30
2018-11-14T16:59:56.042Z,102792.85
2018-11-14T17:02:24.318Z,102791.54
2018-11-14T17:04:52.655Z,102781.64
2018-11-14T17:07:21.320Z,102790.27
2018-11-14T17:09:49.594Z,102784.94
2018-11-14T17:12:17.905Z,102798.20
2018-11-14T17:14:46.535Z,102786.54
2018-11-14T17:17:14.789Z,102788.80
2018-11-14T17:19:43.141Z,102786.16
2018-11-14T17:22:11.520Z,102789.02
2018-11-14T17:24:39.858Z,102778.07
2018-11-14T17:27:08.186Z,102785.83
2018-11-14T17:29:36.536Z,102784.64
2018-11-14T17:32:06.053Z,102782.95
2018-11-14T17:34:34.561Z,102790.25
2018-11-14T17:37:02.982Z,102790.40
2018-11-14T17:39:31.316Z,102784.37
2018-11-14T17:41:59.860Z,102793.09
2018-11-14T17:44:28.054Z,102787.64
2018-11-14T17:46:56.378Z,102789.94
2018-11-14T17:49:24.720Z,102789.23
2018-11-14T17:51:53.052Z,102787.92
2018-11-14T17:54:21.402Z,102793.23
2018-11-14T17:56:49.720Z,102788.54
2018-11-14T17:59:18.080Z,102785.49
2018-11-14T18:01:46.497Z,102785.43
2018-11-14T18:04:14.860Z,102783.19
2018-11-14T18:06:43.193Z,102787.05
2018-11-14T18:09:13.499Z,102773.88
2018-11-14T18:11:42.064Z,102782.81
2018-11-14T18:14:10.504Z,102783.02
2018-11-14T18:16:39.338Z,102785.70
2018-11-14T18:19:07.949Z,102787.36
2018-11-14T18:21:36.292Z,102786.13
2018-11-14T18:24:05.181Z,102785.16
2018-11-14T18:26:33.570Z,102777.48
2018-11-14T18:29:01.911Z,102784.62
2018-11-14T18:31:30.200Z,102786.52
2018-11-14T18:33:58.503Z,102783.95
2018-11-14T18:36:26.892Z,102791.97
2018-11-14T18:38:55.155Z,102796.36
2018-11-14T18:41:23.451Z,102788.27
2018-11-14T18:43:51.785Z,102795.23
2018-11-14T18:46:20.257Z,102789.53
2018-11-14T18:48:48.698Z,102780.77
2018-11-14T18:51:17.025Z,102791.27
2018-11-14T18:53:45.360Z,102793.42
2018-11-14T18:56:13.764Z,102791.44
2018-11-14T18:58:42.105Z,102796.47
2018-11-14T19:01:10.425Z,102787.56
2018-11-14T19:03:38.769Z,102791.62
2018-11-14T19:06:07.102Z,102792.75
2018-11-14T19:08:35.432Z,102798.81
2018-11-14T19:11:03.741Z,102797.85
2018-11-14T19:13:32.137Z,102800.84
2018-11-14T19:16:00.604Z,102785.55
2018-11-14T19:18:28.987Z,102796.48
2018-11-14T19:20:57.261Z,102794.00
2018-11-14T19:23:25.610Z,102791.81
2018-11-14T19:25:53.944Z,102795.55
2018-11-14T19:28:22.277Z,102792.17
2018-11-14T19:30:50.705Z,102790.48
2018-11-14T19:33:18.973Z,102792.46
2018-11-14T19:35:47.298Z,102795.73
2018-11-14T19:38:15.640Z,102794.72
2018-11-14T19:40:43.998Z,102784.56
2018-11-14T19:43:12.325Z,102785.43
2018-11-14T19:45:41.502Z,102777.77
2018-11-14T19:48:09.956Z,102787.16
2018-11-14T19:50:38.327Z,102787.91
2018-11-14T19:53:06.848Z,102777.74
2018-11-14T19:55:35.972Z,102776.52
2018-11-14T19:58:05.000Z,102780.86
2018-11-14T20:00:34.525Z,102775.44
2018-11-14T20:03:02.911Z,102777.07
2018-11-14T20:05:31.245Z,102777.69
2018-11-14T20:07:59.569Z,102776.08
2018-11-14T20:10:30.399Z,102780.80
2018-11-14T20:12:58.645Z,102777.39
2018-11-14T20:15:30.680Z,102781.91
2018-11-14T20:17:59.010Z,102778.50
2018-11-14T20:20:29.633Z,102784.62
2018-11-14T20:22:57.980Z,102783.78
2018-11-14T20:25:26.322Z,102787.45
2018-11-14T20:27:54.648Z,102788.67
2018-11-14T20:30:25.485Z,102791.73
2018-11-14T20:32:54.796Z,102795.05
2018-11-14T20:35:23.988Z,102790.34
2018-11-14T20:37:52.325Z,102794.88
2018-11-14T20:40:21.705Z,102798.12
2018-11-14T20:42:50.928Z,102793.45
2018-11-14T20:45:26.905Z,102797.16
2018-11-14T20:47:55.322Z,102792.00
2018-11-14T20:50:24.507Z,102792.75
2018-11-14T20:52:57.096Z,102798.93
2018-11-14T20:55:25.945Z,102798.00
2018-11-14T20:57:54.820Z,102795.20
2018-11-14T21:00:28.421Z,102797.24
2018-11-14T21:02:57.213Z,102792.61
2018-11-14T21:05:26.149Z,102790.65
2018-11-14T21:07:54.837Z,102790.50
2018-11-14T21:10:25.594Z,102793.16
2018-11-14T21:12:54.825Z,102790.89
2018-11-14T21:15:24.564Z,102790.19
2018-11-14T21:17:53.664Z,102785.87
2018-11-14T21:20:22.008Z,102786.34
2018-11-14T21:22:50.362Z,102793.21
2018-11-14T21:25:19.832Z,102786.61
2018-11-14T21:27:48.705Z,102790.02
2018-11-14T21:30:19.357Z,102787.16
2018-11-14T21:32:47.691Z,102786.63
2018-11-14T21:35:19.476Z,102782.95
2018-11-14T21:37:49.301Z,102797.75
2018-11-14T21:40:17.711Z,102796.57
2018-11-14T21:42:46.049Z,102802.98
2018-11-14T21:45:16.059Z,102805.06
2018-11-14T21:47:49.544Z,102796.59
2018-11-14T21:50:18.706Z,102809.61
2018-11-14T21:52:47.457Z,102801.75
2018-11-14T21:55:15.829Z,102806.06
2018-11-14T21:57:44.209Z,102814.00
2018-11-14T22:00:14.908Z,102808.84
2018-11-14T22:02:44.776Z,102815.23
2018-11-14T22:05:13.096Z,102807.99
2018-11-14T22:07:41.436Z,102803.43
2018-11-14T22:10:12.820Z,102806.98
2018-11-14T22:12:41.740Z,102800.81
2018-11-14T22:15:12.468Z,102798.45
2018-11-14T22:17:41.120Z,102800.77
2018-11-14T22:20:11.560Z,102799.13
2018-11-14T22:22:40.684Z,102805.08
2018-11-14T22:25:09.739Z,102808.08
2018-11-14T22:27:38.072Z,102802.76
2018-11-14T22:30:10.544Z,102802.21
2018-11-14T22:32:38.859Z,102805.21
2018-11-14T22:35:08.634Z,102805.38
2018-11-14T22:37:36.940Z,102801.75
2018-11-14T22:40:06.300Z,102806.23
2018-11-14T22:42:34.624Z,102807.62
2018-11-14T22:45:02.976Z,102798.91
2018-11-14T22:47:31.388Z,102801.45
2018-11-14T22:49:59.711Z,102808.00
2018-11-14T22:52:28.044Z,102805.08
2018-11-14T22:54:56.484Z,102806.06
2018-11-14T22:57:24.816Z,102808.38
2018-11-14T22:59:53.495Z,102809.69
2018-11-14T23:02:21.832Z,102820.03
2018-11-14T23:04:50.172Z,102813.61
2018-11-14T23:07:18.507Z,102815.76
2018-11-14T23:09:46.916Z,102816.39
2018-11-14T23:12:15.248Z,102814.53
2018-11-14T23:14:43.573Z,102811.15
2018-11-14T23:17:11.892Z,102818.93
2018-11-14T23:19:40.220Z,102823.63
2018-11-14T23:22:08.531Z,102817.55
2018-11-14T23:24:36.848Z,102817.47
2018-11-14T23:27:05.568Z,102811.92
2018-11-14T23:29:33.935Z,102822.41
2018-11-14T23:32:02.310Z,102833.73
2018-11-14T23:34:30.640Z,102832.49
2018-11-14T23:36:59.269Z,102835.43
2018-11-14T23:39:27.576Z,102839.36
2018-11-14T23:41:55.896Z,102842.06
2018-11-14T23:44:24.224Z,102840.50
2018-11-14T23:46:52.540Z,102836.52
2018-11-14T23:49:20.859Z,102835.12
2018-11-14T23:51:49.209Z,102833.73
2018-11-14T23:54:17.536Z,102832.59
2018-11-14T23:56:45.860Z,102832.26
2018-11-14T23:59:14.212Z,102830.02
